sensor_id;sensor_type;location;lat;lon;timestamp;temperature;humidity
27439;DHT22;14887;51.252;7.470;2023-02-26T00:01:25;-2.30;1.00
27439;DHT22;14887;51.252;7.470;2023-02-26T00:03:52;-2.30;1.00
27439;DHT22;14887;51.252;7.470;2023-02-26T00:06:19;-2.20;1.00
27439;DHT22;14887;51.252;7.470;2023-02-26T00:08:45;-2.00;1.00
27439;DHT22;14887;51.252;7.470;2023-02-26T00:11:11;-2.10;1.00
27439;DHT22;14887;51.252;7.470;2023-02-26T00:13:38;-2.00;1.00
27439;DHT22;14887;51.252;7.470;2023-02-26T00:16:23;-2.00;1.00
27439;DHT22;14887;51.252;7.470;2023-02-26T00:18:50;-1.90;1.00
27439;DHT22;14887;51.252;7.470;2023-02-26T00:21:18;-1.90;1.00
27439;DHT22;14887;51.252;7.470;2023-02-26T00:23:44;-1.90;1.00
27439;DHT22;14887;51.252;7.470;2023-02-26T00:26:10;-1.90;1.00
27439;DHT22;14887;51.252;7.470;2023-02-26T00:28:36;-1.90;1.00
27439;DHT22;14887;51.252;7.470;2023-02-26T00:31:02;-1.90;1.00
27439;DHT22;14887;51.252;7.470;2023-02-26T00:33:27;-1.90;1.00
27439;DHT22;14887;51.252;7.470;2023-02-26T00:35:58;-2.00;1.00
27439;DHT22;14887;51.252;7.470;2023-02-26T00:38:26;-2.00;1.00
27439;DHT22;14887;51.252;7.470;2023-02-26T00:40:55;-1.90;1.00
27439;DHT22;14887;51.252;7.470;2023-02-26T00:43:23;-2.00;1.00
27439;DHT22;14887;51.252;7.470;2023-02-26T00:45:57;-2.00;1.00
27439;DHT22;14887;51.252;7.470;2023-02-26T00:48:39;-2.00;1.00
27439;DHT22;14887;51.252;7.470;2023-02-26T00:51:23;-2.00;1.00
27439;DHT22;14887;51.252;7.470;2023-02-26T00:56:30;-2.10;1.00
27439;DHT22;14887;51.252;7.470;2023-02-26T00:58:56;-2.20;1.00
27439;DHT22;14887;51.252;7.470;2023-02-26T01:01:22;-2.10;1.00
27439;DHT22;14887;51.252;7.470;2023-02-26T01:03:48;-2.10;1.00
27439;DHT22;14887;51.252;7.470;2023-02-26T01:06:16;-2.00;1.00
27439;DHT22;14887;51.252;7.470;2023-02-26T01:08:49;-1.90;1.00
27439;DHT22;14887;51.252;7.470;2023-02-26T01:11:16;-2.00;1.00
27439;DHT22;14887;51.252;7.470;2023-02-26T01:13:42;-1.90;1.00
27439;DHT22;14887;51.252;7.470;2023-02-26T01:16:11;-2.00;1.00
27439;DHT22;14887;51.252;7.470;2023-02-26T01:19:26;-2.10;1.00
27439;DHT22;14887;51.252;7.470;2023-02-26T01:21:35;-2.10;1.00
27439;DHT22;14887;51.252;7.470;2023-02-26T01:24:05;-2.20;1.00
27439;DHT22;14887;51.252;7.470;2023-02-26T01:26:33;-2.30;1.00
27439;DHT22;14887;51.252;7.470;2023-02-26T01:29:00;-2.40;1.00
27439;DHT22;14887;51.252;7.470;2023-02-26T01:31:51;-2.40;1.00
27439;DHT22;14887;51.252;7.470;2023-02-26T01:36:57;-2.60;1.00
27439;DHT22;14887;51.252;7.470;2023-02-26T01:39:30;-2.70;1.00
27439;DHT22;14887;51.252;7.470;2023-02-26T01:42:24;-2.80;1.00
27439;DHT22;14887;51.252;7.470;2023-02-26T01:45:00;-2.70;1.00
27439;DHT22;14887;51.252;7.470;2023-02-26T01:47:32;-2.70;1.00
27439;DHT22;14887;51.252;7.470;2023-02-26T01:50:18;-2.50;1.00
27439;DHT22;14887;51.252;7.470;2023-02-26T01:55:15;-2.70;1.00
27439;DHT22;14887;51.252;7.470;2023-02-26T01:57:41;-2.60;1.00
27439;DHT22;14887;51.252;7.470;2023-02-26T02:00:08;-2.60;1.00
27439;DHT22;14887;51.252;7.470;2023-02-26T02:02:34;-2.50;1.00
27439;DHT22;14887;51.252;7.470;2023-02-26T02:05:14;-2.40;1.00
27439;DHT22;14887;51.252;7.470;2023-02-26T02:07:42;-2.40;1.00
27439;DHT22;14887;51.252;7.470;2023-02-26T02:10:08;-2.30;1.00
27439;DHT22;14887;51.252;7.470;2023-02-26T02:15:10;-2.50;1.00
27439;DHT22;14887;51.252;7.470;2023-02-26T02:28:50;-2.90;1.00
27439;DHT22;14887;51.252;7.470;2023-02-26T02:31:25;-3.00;1.00
27439;DHT22;14887;51.252;7.470;2023-02-26T02:39:06;-3.30;1.00
27439;DHT22;14887;51.252;7.470;2023-02-26T02:41:47;-3.30;1.00
27439;DHT22;14887;51.252;7.470;2023-02-26T02:44:17;-3.40;1.00
27439;DHT22;14887;51.252;7.470;2023-02-26T02:46:46;-3.50;1.00
27439;DHT22;14887;51.252;7.470;2023-02-26T02:49:24;-3.50;1.00
27439;DHT22;14887;51.252;7.470;2023-02-26T02:52:24;-3.50;1.00
27439;DHT22;14887;51.252;7.470;2023-02-26T02:55:19;-3.50;1.00
27439;DHT22;14887;51.252;7.470;2023-02-26T02:57:58;-3.40;1.00
27439;DHT22;14887;51.252;7.470;2023-02-26T03:00:27;-3.40;1.00
27439;DHT22;14887;51.252;7.470;2023-02-26T03:03:07;-3.30;1.00
27439;DHT22;14887;51.252;7.470;2023-02-26T03:05:35;-3.20;1.00
27439;DHT22;14887;51.252;7.470;2023-02-26T03:08:12;-3.20;1.00
27439;DHT22;14887;51.252;7.470;2023-02-26T03:10:39;-3.20;1.00
27439;DHT22;14887;51.252;7.470;2023-02-26T03:13:05;-3.10;1.00
27439;DHT22;14887;51.252;7.470;2023-02-26T03:16:51;-3.10;1.00
27439;DHT22;14887;51.252;7.470;2023-02-26T03:22:06;-3.10;1.00
27439;DHT22;14887;51.252;7.470;2023-02-26T03:24:50;-3.10;1.00
27439;DHT22;14887;51.252;7.470;2023-02-26T03:27:23;-3.00;1.00
27439;DHT22;14887;51.252;7.470;2023-02-26T03:30:13;-3.00;1.00
27439;DHT22;14887;51.252;7.470;2023-02-26T03:32:52;-2.90;1.00
27439;DHT22;14887;51.252;7.470;2023-02-26T03:35:39;-2.90;1.00
27439;DHT22;14887;51.252;7.470;2023-02-26T03:38:14;-3.00;1.00
27439;DHT22;14887;51.252;7.470;2023-02-26T03:40:48;-3.00;1.00
27439;DHT22;14887;51.252;7.470;2023-02-26T03:43:22;-2.90;1.00
27439;DHT22;14887;51.252;7.470;2023-02-26T03:45:53;-2.90;1.00
27439;DHT22;14887;51.252;7.470;2023-02-26T03:48:23;-3.00;1.00
27439;DHT22;14887;51.252;7.470;2023-02-26T03:50:53;-3.00;1.00
27439;DHT22;14887;51.252;7.470;2023-02-26T03:53:26;-3.00;1.00
27439;DHT22;14887;51.252;7.470;2023-02-26T03:58:27;-3.00;1.00
27439;DHT22;14887;51.252;7.470;2023-02-26T04:01:06;-3.00;1.00
27439;DHT22;14887;51.252;7.470;2023-02-26T04:03:46;-3.00;1.00
27439;DHT22;14887;51.252;7.470;2023-02-26T04:06:13;-3.00;1.00
27439;DHT22;14887;51.252;7.470;2023-02-26T04:08:39;-3.00;1.00
27439;DHT22;14887;51.252;7.470;2023-02-26T04:11:11;-3.00;1.00
27439;DHT22;14887;51.252;7.470;2023-02-26T04:13:37;-2.90;1.00
27439;DHT22;14887;51.252;7.470;2023-02-26T04:16:03;-2.90;1.00
27439;DHT22;14887;51.252;7.470;2023-02-26T04:18:29;-3.00;1.00
27439;DHT22;14887;51.252;7.470;2023-02-26T04:20:54;-3.00;1.00
27439;DHT22;14887;51.252;7.470;2023-02-26T04:23:20;-2.90;1.00
27439;DHT22;14887;51.252;7.470;2023-02-26T04:25:46;-2.90;1.00
27439;DHT22;14887;51.252;7.470;2023-02-26T04:28:12;-3.00;1.00
27439;DHT22;14887;51.252;7.470;2023-02-26T04:30:37;-3.10;1.00
27439;DHT22;14887;51.252;7.470;2023-02-26T04:33:03;-3.20;1.00
27439;DHT22;14887;51.252;7.470;2023-02-26T04:35:29;-3.20;1.00
27439;DHT22;14887;51.252;7.470;2023-02-26T04:37:54;-3.20;1.00
27439;DHT22;14887;51.252;7.470;2023-02-26T04:40:20;-3.20;1.00
27439;DHT22;14887;51.252;7.470;2023-02-26T04:42:48;-3.20;1.00
27439;DHT22;14887;51.252;7.470;2023-02-26T04:45:14;-3.20;1.00
27439;DHT22;14887;51.252;7.470;2023-02-26T04:47:39;-3.20;1.00
27439;DHT22;14887;51.252;7.470;2023-02-26T04:50:06;-3.10;1.00
27439;DHT22;14887;51.252;7.470;2023-02-26T04:52:32;-3.10;1.00
27439;DHT22;14887;51.252;7.470;2023-02-26T04:54:57;-3.10;1.00
27439;DHT22;14887;51.252;7.470;2023-02-26T04:57:23;-3.20;1.00
27439;DHT22;14887;51.252;7.470;2023-02-26T04:59:49;-3.30;1.00
27439;DHT22;14887;51.252;7.470;2023-02-26T05:02:14;-3.30;1.00
27439;DHT22;14887;51.252;7.470;2023-02-26T05:04:40;-3.40;1.00
27439;DHT22;14887;51.252;7.470;2023-02-26T05:07:05;-3.40;1.00
27439;DHT22;14887;51.252;7.470;2023-02-26T05:09:31;-3.40;1.00
27439;DHT22;14887;51.252;7.470;2023-02-26T05:11:57;-3.40;1.00
27439;DHT22;14887;51.252;7.470;2023-02-26T05:14:22;-3.30;1.00
27439;DHT22;14887;51.252;7.470;2023-02-26T05:16:48;-3.30;1.00
27439;DHT22;14887;51.252;7.470;2023-02-26T05:19:14;-3.40;1.00
27439;DHT22;14887;51.252;7.470;2023-02-26T05:21:39;-3.50;1.00
27439;DHT22;14887;51.252;7.470;2023-02-26T05:24:05;-3.60;1.00
27439;DHT22;14887;51.252;7.470;2023-02-26T05:26:30;-3.60;1.00
27439;DHT22;14887;51.252;7.470;2023-02-26T05:28:56;-3.70;1.00
27439;DHT22;14887;51.252;7.470;2023-02-26T05:31:22;-3.70;1.00
27439;DHT22;14887;51.252;7.470;2023-02-26T05:33:47;-3.80;1.00
27439;DHT22;14887;51.252;7.470;2023-02-26T05:36:13;-3.80;1.00
27439;DHT22;14887;51.252;7.470;2023-02-26T05:38:38;-3.80;1.00
27439;DHT22;14887;51.252;7.470;2023-02-26T05:41:04;-3.90;1.00
27439;DHT22;14887;51.252;7.470;2023-02-26T05:43:30;-4.00;1.00
27439;DHT22;14887;51.252;7.470;2023-02-26T05:45:55;-4.00;1.00
27439;DHT22;14887;51.252;7.470;2023-02-26T05:48:22;-4.00;1.00
27439;DHT22;14887;51.252;7.470;2023-02-26T05:50:49;-4.00;1.00
27439;DHT22;14887;51.252;7.470;2023-02-26T05:53:14;-4.00;1.00
27439;DHT22;14887;51.252;7.470;2023-02-26T05:55:40;-4.00;1.00
27439;DHT22;14887;51.252;7.470;2023-02-26T05:58:06;-3.90;1.00
27439;DHT22;14887;51.252;7.470;2023-02-26T06:00:31;-3.90;1.00
27439;DHT22;14887;51.252;7.470;2023-02-26T06:02:57;-3.80;1.00
27439;DHT22;14887;51.252;7.470;2023-02-26T06:05:23;-3.70;1.00
27439;DHT22;14887;51.252;7.470;2023-02-26T06:07:48;-3.60;1.00
27439;DHT22;14887;51.252;7.470;2023-02-26T06:10:14;-3.60;1.00
27439;DHT22;14887;51.252;7.470;2023-02-26T06:12:39;-3.60;1.00
27439;DHT22;14887;51.252;7.470;2023-02-26T06:15:06;-3.60;1.00
27439;DHT22;14887;51.252;7.470;2023-02-26T06:17:32;-3.40;1.00
27439;DHT22;14887;51.252;7.470;2023-02-26T06:19:58;-3.30;1.00
27439;DHT22;14887;51.252;7.470;2023-02-26T06:22:23;-3.40;1.00
27439;DHT22;14887;51.252;7.470;2023-02-26T06:24:49;-3.40;1.00
27439;DHT22;14887;51.252;7.470;2023-02-26T06:27:15;-3.40;1.00
27439;DHT22;14887;51.252;7.470;2023-02-26T06:29:40;-3.40;1.00
27439;DHT22;14887;51.252;7.470;2023-02-26T06:32:06;-3.50;1.00
27439;DHT22;14887;51.252;7.470;2023-02-26T06:34:32;-3.30;1.00
27439;DHT22;14887;51.252;7.470;2023-02-26T06:36:58;-3.30;1.00
27439;DHT22;14887;51.252;7.470;2023-02-26T06:39:23;-3.30;1.00
27439;DHT22;14887;51.252;7.470;2023-02-26T06:41:49;-3.30;1.00
27439;DHT22;14887;51.252;7.470;2023-02-26T06:44:14;-3.40;1.00
27439;DHT22;14887;51.252;7.470;2023-02-26T06:46:40;-3.40;1.00
27439;DHT22;14887;51.252;7.470;2023-02-26T06:49:06;-3.50;1.00
27439;DHT22;14887;51.252;7.470;2023-02-26T06:51:31;-3.50;1.00
27439;DHT22;14887;51.252;7.470;2023-02-26T06:53:57;-3.50;1.00
27439;DHT22;14887;51.252;7.470;2023-02-26T06:56:23;-3.50;1.00
27439;DHT22;14887;51.252;7.470;2023-02-26T06:58:49;-3.60;1.00
27439;DHT22;14887;51.252;7.470;2023-02-26T07:01:15;-3.50;1.00
27439;DHT22;14887;51.252;7.470;2023-02-26T07:03:40;-3.60;1.00
27439;DHT22;14887;51.252;7.470;2023-02-26T07:06:08;-3.60;1.00
27439;DHT22;14887;51.252;7.470;2023-02-26T07:08:34;-3.50;1.00
27439;DHT22;14887;51.252;7.470;2023-02-26T07:11:00;-3.40;1.00
27439;DHT22;14887;51.252;7.470;2023-02-26T07:13:26;-3.40;1.00
27439;DHT22;14887;51.252;7.470;2023-02-26T07:15:51;-3.40;1.00
27439;DHT22;14887;51.252;7.470;2023-02-26T07:18:17;-3.40;1.00
27439;DHT22;14887;51.252;7.470;2023-02-26T07:20:43;-3.40;1.00
27439;DHT22;14887;51.252;7.470;2023-02-26T07:23:10;-3.40;1.00
27439;DHT22;14887;51.252;7.470;2023-02-26T07:25:36;-3.20;1.00
27439;DHT22;14887;51.252;7.470;2023-02-26T07:28:03;-3.10;1.00
27439;DHT22;14887;51.252;7.470;2023-02-26T07:30:28;-2.90;1.00
27439;DHT22;14887;51.252;7.470;2023-02-26T07:32:55;-2.90;1.00
27439;DHT22;14887;51.252;7.470;2023-02-26T07:35:21;-3.00;1.00
27439;DHT22;14887;51.252;7.470;2023-02-26T07:37:46;-3.10;1.00
27439;DHT22;14887;51.252;7.470;2023-02-26T07:40:12;-3.20;1.00
27439;DHT22;14887;51.252;7.470;2023-02-26T07:42:38;-3.00;1.00
27439;DHT22;14887;51.252;7.470;2023-02-26T07:45:04;-3.00;1.00
27439;DHT22;14887;51.252;7.470;2023-02-26T07:47:30;-2.90;1.00
27439;DHT22;14887;51.252;7.470;2023-02-26T07:49:56;-2.80;1.00
27439;DHT22;14887;51.252;7.470;2023-02-26T07:52:21;-2.80;1.00
27439;DHT22;14887;51.252;7.470;2023-02-26T07:54:47;-2.80;1.00
27439;DHT22;14887;51.252;7.470;2023-02-26T07:57:13;-2.70;1.00
27439;DHT22;14887;51.252;7.470;2023-02-26T07:59:38;-2.00;1.00
27439;DHT22;14887;51.252;7.470;2023-02-26T08:02:04;-1.10;1.00
27439;DHT22;14887;51.252;7.470;2023-02-26T08:04:30;-0.20;1.00
27439;DHT22;14887;51.252;7.470;2023-02-26T08:06:58;0.20;99.90
27439;DHT22;14887;51.252;7.470;2023-02-26T08:09:23;0.60;1.00
27439;DHT22;14887;51.252;7.470;2023-02-26T08:11:50;0.90;1.00
27439;DHT22;14887;51.252;7.470;2023-02-26T08:14:15;1.20;1.00
27439;DHT22;14887;51.252;7.470;2023-02-26T08:16:41;0.70;1.00
27439;DHT22;14887;51.252;7.470;2023-02-26T08:19:07;0.60;99.90
27439;DHT22;14887;51.252;7.470;2023-02-26T08:21:32;1.00;99.90
27439;DHT22;14887;51.252;7.470;2023-02-26T08:23:58;0.50;1.00
27439;DHT22;14887;51.252;7.470;2023-02-26T08:26:24;0.80;1.00
27439;DHT22;14887;51.252;7.470;2023-02-26T08:28:49;1.20;1.00
27439;DHT22;14887;51.252;7.470;2023-02-26T08:31:15;0.60;99.90
27439;DHT22;14887;51.252;7.470;2023-02-26T08:33:40;0.70;1.00
27439;DHT22;14887;51.252;7.470;2023-02-26T08:36:07;0.80;1.00
27439;DHT22;14887;51.252;7.470;2023-02-26T08:38:33;0.80;1.00
27439;DHT22;14887;51.252;7.470;2023-02-26T08:40:59;0.80;99.90
27439;DHT22;14887;51.252;7.470;2023-02-26T08:43:25;0.70;1.00
27439;DHT22;14887;51.252;7.470;2023-02-26T08:45:54;0.90;1.00
27439;DHT22;14887;51.252;7.470;2023-02-26T08:48:21;0.80;1.00
27439;DHT22;14887;51.252;7.470;2023-02-26T08:50:47;1.50;1.00
27439;DHT22;14887;51.252;7.470;2023-02-26T08:53:13;1.20;1.00
27439;DHT22;14887;51.252;7.470;2023-02-26T08:55:39;1.40;1.00
27439;DHT22;14887;51.252;7.470;2023-02-26T08:58:04;1.70;99.90
27439;DHT22;14887;51.252;7.470;2023-02-26T09:00:32;2.50;99.90
27439;DHT22;14887;51.252;7.470;2023-02-26T09:02:58;2.40;36.60
27439;DHT22;14887;51.252;7.470;2023-02-26T09:05:24;1.40;99.90
27439;DHT22;14887;51.252;7.470;2023-02-26T09:07:49;1.20;1.00
27439;DHT22;14887;51.252;7.470;2023-02-26T09:10:15;0.90;1.00
27439;DHT22;14887;51.252;7.470;2023-02-26T09:12:42;0.20;84.80
27439;DHT22;14887;51.252;7.470;2023-02-26T09:15:09;0.30;99.90
27439;DHT22;14887;51.252;7.470;2023-02-26T09:17:35;0.30;99.90
27439;DHT22;14887;51.252;7.470;2023-02-26T09:20:01;0.20;1.00
27439;DHT22;14887;51.252;7.470;2023-02-26T09:22:28;0.00;1.00
27439;DHT22;14887;51.252;7.470;2023-02-26T09:24:53;-0.10;1.00
27439;DHT22;14887;51.252;7.470;2023-02-26T09:27:19;0.00;1.00
27439;DHT22;14887;51.252;7.470;2023-02-26T09:29:44;0.20;1.00
27439;DHT22;14887;51.252;7.470;2023-02-26T09:32:10;0.20;99.90
27439;DHT22;14887;51.252;7.470;2023-02-26T09:34:36;0.20;99.90
27439;DHT22;14887;51.252;7.470;2023-02-26T09:37:04;0.30;99.90
27439;DHT22;14887;51.252;7.470;2023-02-26T09:39:30;0.80;99.90
27439;DHT22;14887;51.252;7.470;2023-02-26T09:42:02;0.70;70.40
27439;DHT22;14887;51.252;7.470;2023-02-26T09:44:33;0.70;99.90
27439;DHT22;14887;51.252;7.470;2023-02-26T09:47:05;0.80;99.90
27439;DHT22;14887;51.252;7.470;2023-02-26T09:49:47;0.50;1.00
27439;DHT22;14887;51.252;7.470;2023-02-26T09:52:24;0.40;1.00
27439;DHT22;14887;51.252;7.470;2023-02-26T09:55:04;0.30;99.90
27439;DHT22;14887;51.252;7.470;2023-02-26T09:57:34;0.20;99.90
27439;DHT22;14887;51.252;7.470;2023-02-26T10:00:02;0.30;99.90
27439;DHT22;14887;51.252;7.470;2023-02-26T10:02:52;0.50;1.00
27439;DHT22;14887;51.252;7.470;2023-02-26T10:05:29;0.70;31.10
27439;DHT22;14887;51.252;7.470;2023-02-26T10:08:07;0.50;99.90
27439;DHT22;14887;51.252;7.470;2023-02-26T10:10:49;0.70;1.00
27439;DHT22;14887;51.252;7.470;2023-02-26T10:15:49;0.80;99.90
27439;DHT22;14887;51.252;7.470;2023-02-26T10:18:26;0.90;1.00
27439;DHT22;14887;51.252;7.470;2023-02-26T10:21:00;0.90;1.00
27439;DHT22;14887;51.252;7.470;2023-02-26T10:23:38;1.50;1.00
27439;DHT22;14887;51.252;7.470;2023-02-26T10:26:13;1.70;1.00
27439;DHT22;14887;51.252;7.470;2023-02-26T10:37:11;3.10;99.90
27439;DHT22;14887;51.252;7.470;2023-02-26T10:39:50;2.70;99.90
27439;DHT22;14887;51.252;7.470;2023-02-26T10:42:31;3.20;1.00
27439;DHT22;14887;51.252;7.470;2023-02-26T10:50:35;2.30;99.90
27439;DHT22;14887;51.252;7.470;2023-02-26T10:53:01;1.70;1.00
27439;DHT22;14887;51.252;7.470;2023-02-26T10:58:25;0.90;46.90
27439;DHT22;14887;51.252;7.470;2023-02-26T11:00:55;0.50;99.90
27439;DHT22;14887;51.252;7.470;2023-02-26T11:03:24;0.20;1.00
27439;DHT22;14887;51.252;7.470;2023-02-26T11:05:53;0.30;54.00
27439;DHT22;14887;51.252;7.470;2023-02-26T11:08:31;0.40;99.90
27439;DHT22;14887;51.252;7.470;2023-02-26T11:11:00;0.50;1.00
27439;DHT22;14887;51.252;7.470;2023-02-26T11:13:28;0.90;99.90
27439;DHT22;14887;51.252;7.470;2023-02-26T11:15:57;1.40;1.00
27439;DHT22;14887;51.252;7.470;2023-02-26T11:18:52;1.50;1.00
27439;DHT22;14887;51.252;7.470;2023-02-26T11:21:21;1.80;1.00
27439;DHT22;14887;51.252;7.470;2023-02-26T11:23:50;2.00;1.00
27439;DHT22;14887;51.252;7.470;2023-02-26T11:26:19;2.00;1.00
27439;DHT22;14887;51.252;7.470;2023-02-26T11:28:53;2.30;1.00
27439;DHT22;14887;51.252;7.470;2023-02-26T11:31:22;2.50;1.00
27439;DHT22;14887;51.252;7.470;2023-02-26T11:33:50;2.70;1.00
27439;DHT22;14887;51.252;7.470;2023-02-26T11:36:19;2.70;99.90
27439;DHT22;14887;51.252;7.470;2023-02-26T11:38:57;2.20;1.00
27439;DHT22;14887;51.252;7.470;2023-02-26T11:41:24;2.20;1.00
27439;DHT22;14887;51.252;7.470;2023-02-26T11:44:18;2.60;1.00
27439;DHT22;14887;51.252;7.470;2023-02-26T11:46:52;2.80;99.90
27439;DHT22;14887;51.252;7.470;2023-02-26T11:49:22;2.70;99.90
27439;DHT22;14887;51.252;7.470;2023-02-26T11:52:03;2.20;99.90
27439;DHT22;14887;51.252;7.470;2023-02-26T11:54:29;1.80;99.90
27439;DHT22;14887;51.252;7.470;2023-02-26T11:57:04;1.70;99.90
27439;DHT22;14887;51.252;7.470;2023-02-26T11:59:31;1.80;99.90
27439;DHT22;14887;51.252;7.470;2023-02-26T12:02:05;2.10;99.90
27439;DHT22;14887;51.252;7.470;2023-02-26T12:04:34;1.80;99.90
27439;DHT22;14887;51.252;7.470;2023-02-26T12:07:00;1.70;99.90
27439;DHT22;14887;51.252;7.470;2023-02-26T12:09:25;1.80;99.90
27439;DHT22;14887;51.252;7.470;2023-02-26T12:12:14;1.70;99.90
27439;DHT22;14887;51.252;7.470;2023-02-26T12:25:56;1.80;99.90
27439;DHT22;14887;51.252;7.470;2023-02-26T12:36:29;4.70;1.00
27439;DHT22;14887;51.252;7.470;2023-02-26T12:39:22;4.90;1.00
27439;DHT22;14887;51.252;7.470;2023-02-26T12:44:56;3.80;1.00
27439;DHT22;14887;51.252;7.470;2023-02-26T12:50:41;3.30;1.00
27439;DHT22;14887;51.252;7.470;2023-02-26T12:59:05;4.20;1.00
27439;DHT22;14887;51.252;7.470;2023-02-26T13:01:56;4.10;1.00
27439;DHT22;14887;51.252;7.470;2023-02-26T13:04:40;4.50;1.00
27439;DHT22;14887;51.252;7.470;2023-02-26T13:07:31;4.80;1.00
27439;DHT22;14887;51.252;7.470;2023-02-26T13:15:58;5.50;1.00
27439;DHT22;14887;51.252;7.470;2023-02-26T13:21:04;5.90;1.00
27439;DHT22;14887;51.252;7.470;2023-02-26T13:23:37;6.60;1.00
27439;DHT22;14887;51.252;7.470;2023-02-26T13:26:10;7.30;1.00
27439;DHT22;14887;51.252;7.470;2023-02-26T13:28:59;7.70;1.00
27439;DHT22;14887;51.252;7.470;2023-02-26T13:31:30;6.40;1.00
27439;DHT22;14887;51.252;7.470;2023-02-26T13:34:01;5.80;1.00
27439;DHT22;14887;51.252;7.470;2023-02-26T13:36:29;5.60;1.00
27439;DHT22;14887;51.252;7.470;2023-02-26T13:39:24;6.20;1.00
27439;DHT22;14887;51.252;7.470;2023-02-26T13:44:40;7.80;1.00
27439;DHT22;14887;51.252;7.470;2023-02-26T13:47:37;8.00;1.00
27439;DHT22;14887;51.252;7.470;2023-02-26T13:50:37;8.90;1.00
27439;DHT22;14887;51.252;7.470;2023-02-26T13:53:05;8.30;99.90
27439;DHT22;14887;51.252;7.470;2023-02-26T13:55:51;6.30;99.90
27439;DHT22;14887;51.252;7.470;2023-02-26T13:58:27;6.20;99.90
27439;DHT22;14887;51.252;7.470;2023-02-26T14:01:26;7.80;99.90
27439;DHT22;14887;51.252;7.470;2023-02-26T14:06:58;8.60;99.90
27439;DHT22;14887;51.252;7.470;2023-02-26T14:11:59;9.80;99.90
27439;DHT22;14887;51.252;7.470;2023-02-26T14:14:34;10.60;99.90
27439;DHT22;14887;51.252;7.470;2023-02-26T14:19:43;10.30;99.90
27439;DHT22;14887;51.252;7.470;2023-02-26T14:27:34;8.50;99.90
27439;DHT22;14887;51.252;7.470;2023-02-26T14:32:49;9.40;99.90
27439;DHT22;14887;51.252;7.470;2023-02-26T14:35:23;10.30;99.90
27439;DHT22;14887;51.252;7.470;2023-02-26T14:41:32;11.60;99.90
27439;DHT22;14887;51.252;7.470;2023-02-26T14:44:14;12.60;99.90
27439;DHT22;14887;51.252;7.470;2023-02-26T14:46:40;12.90;99.90
27439;DHT22;14887;51.252;7.470;2023-02-26T14:49:17;12.00;99.90
27439;DHT22;14887;51.252;7.470;2023-02-26T14:57:26;7.60;99.90
27439;DHT22;14887;51.252;7.470;2023-02-26T15:00:26;8.30;99.90
27439;DHT22;14887;51.252;7.470;2023-02-26T15:02:54;9.30;99.90
27439;DHT22;14887;51.252;7.470;2023-02-26T15:05:27;10.10;99.90
27439;DHT22;14887;51.252;7.470;2023-02-26T15:13:35;10.40;99.90
27439;DHT22;14887;51.252;7.470;2023-02-26T15:18:46;7.80;99.90
27439;DHT22;14887;51.252;7.470;2023-02-26T15:24:02;7.30;99.90
27439;DHT22;14887;51.252;7.470;2023-02-26T15:26:34;8.20;99.90
27439;DHT22;14887;51.252;7.470;2023-02-26T15:29:09;9.00;99.90
27439;DHT22;14887;51.252;7.470;2023-02-26T15:31:41;9.20;99.90
27439;DHT22;14887;51.252;7.470;2023-02-26T15:34:11;7.50;99.90
27439;DHT22;14887;51.252;7.470;2023-02-26T15:36:40;6.30;99.90
27439;DHT22;14887;51.252;7.470;2023-02-26T15:39:07;4.90;99.90
27439;DHT22;14887;51.252;7.470;2023-02-26T15:41:34;4.00;99.90
27439;DHT22;14887;51.252;7.470;2023-02-26T15:44:02;3.60;99.90
27439;DHT22;14887;51.252;7.470;2023-02-26T15:46:37;4.40;99.90
27439;DHT22;14887;51.252;7.470;2023-02-26T15:49:29;5.30;99.90
27439;DHT22;14887;51.252;7.470;2023-02-26T15:51:54;5.50;99.90
27439;DHT22;14887;51.252;7.470;2023-02-26T15:54:23;5.80;99.90
27439;DHT22;14887;51.252;7.470;2023-02-26T15:56:49;5.00;99.90
27439;DHT22;14887;51.252;7.470;2023-02-26T15:59:18;4.60;99.90
27439;DHT22;14887;51.252;7.470;2023-02-26T16:01:47;4.40;99.90
27439;DHT22;14887;51.252;7.470;2023-02-26T16:04:15;3.80;99.90
27439;DHT22;14887;51.252;7.470;2023-02-26T16:06:48;3.60;99.90
27439;DHT22;14887;51.252;7.470;2023-02-26T16:09:20;3.50;99.90
27439;DHT22;14887;51.252;7.470;2023-02-26T16:11:52;3.70;99.90
27439;DHT22;14887;51.252;7.470;2023-02-26T16:14:26;3.80;99.90
27439;DHT22;14887;51.252;7.470;2023-02-26T16:16:53;3.80;99.90
27439;DHT22;14887;51.252;7.470;2023-02-26T16:19:38;3.50;99.90
27439;DHT22;14887;51.252;7.470;2023-02-26T16:22:23;2.70;99.90
27439;DHT22;14887;51.252;7.470;2023-02-26T16:25:04;2.40;1.00
27439;DHT22;14887;51.252;7.470;2023-02-26T16:27:31;2.40;1.00
27439;DHT22;14887;51.252;7.470;2023-02-26T16:29:59;2.50;1.00
27439;DHT22;14887;51.252;7.470;2023-02-26T16:32:28;2.40;1.00
27439;DHT22;14887;51.252;7.470;2023-02-26T16:34:56;2.40;1.00
27439;DHT22;14887;51.252;7.470;2023-02-26T16:40:17;1.80;1.00
27439;DHT22;14887;51.252;7.470;2023-02-26T16:43:00;1.60;1.00
27439;DHT22;14887;51.252;7.470;2023-02-26T16:48:26;1.30;1.00
27439;DHT22;14887;51.252;7.470;2023-02-26T16:51:04;1.00;56.10
27439;DHT22;14887;51.252;7.470;2023-02-26T16:53:42;0.80;99.90
27439;DHT22;14887;51.252;7.470;2023-02-26T16:56:11;0.40;99.90
27439;DHT22;14887;51.252;7.470;2023-02-26T17:01:36;0.10;99.90
27439;DHT22;14887;51.252;7.470;2023-02-26T17:04:04;0.00;1.00
27439;DHT22;14887;51.252;7.470;2023-02-26T17:06:30;-0.10;1.00
27439;DHT22;14887;51.252;7.470;2023-02-26T17:08:58;-0.20;1.00
27439;DHT22;14887;51.252;7.470;2023-02-26T17:11:29;-0.30;1.00
27439;DHT22;14887;51.252;7.470;2023-02-26T17:14:24;-0.40;88.40
27439;DHT22;14887;51.252;7.470;2023-02-26T17:16:52;-0.30;99.90
27439;DHT22;14887;51.252;7.470;2023-02-26T17:19:18;-0.30;99.90
27439;DHT22;14887;51.252;7.470;2023-02-26T17:21:48;-0.40;99.90
27439;DHT22;14887;51.252;7.470;2023-02-26T17:24:20;-0.50;99.90
27439;DHT22;14887;51.252;7.470;2023-02-26T17:26:48;-0.60;1.00
27439;DHT22;14887;51.252;7.470;2023-02-26T17:29:18;-0.60;1.00
27439;DHT22;14887;51.252;7.470;2023-02-26T17:31:44;-0.70;36.50
27439;DHT22;14887;51.252;7.470;2023-02-26T17:34:10;-0.70;90.20
27439;DHT22;14887;51.252;7.470;2023-02-26T17:36:36;-0.70;99.90
27439;DHT22;14887;51.252;7.470;2023-02-26T17:39:02;-0.80;99.90
27439;DHT22;14887;51.252;7.470;2023-02-26T17:41:28;-0.70;54.60
27439;DHT22;14887;51.252;7.470;2023-02-26T17:43:55;-0.70;99.90
27439;DHT22;14887;51.252;7.470;2023-02-26T17:46:21;-0.70;1.00
27439;DHT22;14887;51.252;7.470;2023-02-26T17:48:46;-0.80;99.90
27439;DHT22;14887;51.252;7.470;2023-02-26T17:51:12;-0.80;13.80
27439;DHT22;14887;51.252;7.470;2023-02-26T17:53:38;-0.80;99.90
27439;DHT22;14887;51.252;7.470;2023-02-26T17:56:33;-0.80;99.90
27439;DHT22;14887;51.252;7.470;2023-02-26T17:58:59;-0.90;25.00
27439;DHT22;14887;51.252;7.470;2023-02-26T18:01:25;-0.90;1.00
27439;DHT22;14887;51.252;7.470;2023-02-26T18:03:53;-1.00;74.90
27439;DHT22;14887;51.252;7.470;2023-02-26T18:06:22;-1.00;1.00
27439;DHT22;14887;51.252;7.470;2023-02-26T18:08:48;-1.00;99.90
27439;DHT22;14887;51.252;7.470;2023-02-26T18:11:15;-1.00;1.00
27439;DHT22;14887;51.252;7.470;2023-02-26T18:13:41;-1.10;2.40
27439;DHT22;14887;51.252;7.470;2023-02-26T18:16:18;-1.10;1.00
27439;DHT22;14887;51.252;7.470;2023-02-26T18:18:44;-1.10;99.90
27439;DHT22;14887;51.252;7.470;2023-02-26T18:21:10;-1.10;1.00
27439;DHT22;14887;51.252;7.470;2023-02-26T18:23:36;-1.10;99.90
27439;DHT22;14887;51.252;7.470;2023-02-26T18:26:01;-1.20;99.90
27439;DHT22;14887;51.252;7.470;2023-02-26T18:28:28;-1.20;17.60